sensor_id;sensor_type;location;lat;lon;timestamp;temperature;humidity
69595;DHT22;56800;52.142;5.364;2024-02-23T00:01:11;5.70;87.40
69595;DHT22;56800;52.142;5.364;2024-02-23T00:03:38;5.70;87.30
69595;DHT22;56800;52.142;5.364;2024-02-23T00:06:05;5.80;87.30
69595;DHT22;56800;52.142;5.364;2024-02-23T00:08:32;5.80;87.40
69595;DHT22;56800;52.142;5.364;2024-02-23T00:10:59;5.80;87.40
69595;DHT22;56800;52.142;5.364;2024-02-23T00:13:26;5.80;87.40
69595;DHT22;56800;52.142;5.364;2024-02-23T00:15:53;5.90;87.50
69595;DHT22;56800;52.142;5.364;2024-02-23T00:18:20;6.00;87.50
69595;DHT22;56800;52.142;5.364;2024-02-23T00:20:47;5.90;88.20
69595;DHT22;56800;52.142;5.364;2024-02-23T00:23:14;6.00;87.70
69595;DHT22;56800;52.142;5.364;2024-02-23T00:25:41;6.00;87.60
69595;DHT22;56800;52.142;5.364;2024-02-23T00:28:08;6.10;88.40
69595;DHT22;56800;52.142;5.364;2024-02-23T00:30:35;6.10;87.70
69595;DHT22;56800;52.142;5.364;2024-02-23T00:33:03;6.10;87.80
69595;DHT22;56800;52.142;5.364;2024-02-23T00:35:30;6.20;87.80
69595;DHT22;56800;52.142;5.364;2024-02-23T00:37:56;6.20;87.70
69595;DHT22;56800;52.142;5.364;2024-02-23T00:40:23;6.20;87.60
69595;DHT22;56800;52.142;5.364;2024-02-23T00:42:50;6.20;87.50
69595;DHT22;56800;52.142;5.364;2024-02-23T00:45:17;6.30;87.50
69595;DHT22;56800;52.142;5.364;2024-02-23T00:47:44;6.30;87.50
69595;DHT22;56800;52.142;5.364;2024-02-23T00:50:14;6.30;87.40
69595;DHT22;56800;52.142;5.364;2024-02-23T00:52:41;6.40;87.50
69595;DHT22;56800;52.142;5.364;2024-02-23T00:55:08;6.40;87.50
69595;DHT22;56800;52.142;5.364;2024-02-23T00:57:35;6.40;87.60
69595;DHT22;56800;52.142;5.364;2024-02-23T01:00:04;6.40;87.50
69595;DHT22;56800;52.142;5.364;2024-02-23T01:02:36;6.40;87.50
69595;DHT22;56800;52.142;5.364;2024-02-23T01:05:03;6.40;87.60
69595;DHT22;56800;52.142;5.364;2024-02-23T01:07:31;6.40;87.50
69595;DHT22;56800;52.142;5.364;2024-02-23T01:09:59;6.40;87.50
69595;DHT22;56800;52.142;5.364;2024-02-23T01:12:27;6.40;87.30
69595;DHT22;56800;52.142;5.364;2024-02-23T01:14:54;6.40;87.10
69595;DHT22;56800;52.142;5.364;2024-02-23T01:17:20;6.30;86.30
69595;DHT22;56800;52.142;5.364;2024-02-23T01:19:47;6.30;86.50
69595;DHT22;56800;52.142;5.364;2024-02-23T01:22:14;6.30;86.30
69595;DHT22;56800;52.142;5.364;2024-02-23T01:24:41;6.20;86.10
69595;DHT22;56800;52.142;5.364;2024-02-23T01:27:08;6.20;86.10
69595;DHT22;56800;52.142;5.364;2024-02-23T01:29:35;6.20;86.00
69595;DHT22;56800;52.142;5.364;2024-02-23T01:32:01;6.10;85.90
69595;DHT22;56800;52.142;5.364;2024-02-23T01:34:28;6.10;86.00
69595;DHT22;56800;52.142;5.364;2024-02-23T01:36:55;6.10;86.10
69595;DHT22;56800;52.142;5.364;2024-02-23T01:39:22;6.10;86.10
69595;DHT22;56800;52.142;5.364;2024-02-23T01:41:49;6.10;86.10
69595;DHT22;56800;52.142;5.364;2024-02-23T01:44:15;6.00;86.10
69595;DHT22;56800;52.142;5.364;2024-02-23T01:46:44;6.10;87.10
69595;DHT22;56800;52.142;5.364;2024-02-23T01:49:11;6.10;86.50
69595;DHT22;56800;52.142;5.364;2024-02-23T01:51:38;6.10;86.60
69595;DHT22;56800;52.142;5.364;2024-02-23T01:54:06;6.10;86.70
69595;DHT22;56800;52.142;5.364;2024-02-23T01:56:33;6.10;86.80
69595;DHT22;56800;52.142;5.364;2024-02-23T01:59:03;6.10;86.80
69595;DHT22;56800;52.142;5.364;2024-02-23T02:01:31;6.20;86.80
69595;DHT22;56800;52.142;5.364;2024-02-23T02:03:58;6.10;86.80
69595;DHT22;56800;52.142;5.364;2024-02-23T02:06:25;6.10;86.90
69595;DHT22;56800;52.142;5.364;2024-02-23T02:08:52;6.10;87.10
69595;DHT22;56800;52.142;5.364;2024-02-23T02:11:19;6.10;87.30
69595;DHT22;56800;52.142;5.364;2024-02-23T02:13:46;6.10;87.40
69595;DHT22;56800;52.142;5.364;2024-02-23T02:16:13;6.20;88.40
69595;DHT22;56800;52.142;5.364;2024-02-23T02:18:39;6.10;87.60
69595;DHT22;56800;52.142;5.364;2024-02-23T02:21:06;6.20;87.70
69595;DHT22;56800;52.142;5.364;2024-02-23T02:23:33;6.20;87.80
69595;DHT22;56800;52.142;5.364;2024-02-23T02:26:00;6.20;87.90
69595;DHT22;56800;52.142;5.364;2024-02-23T02:28:27;6.20;87.90
69595;DHT22;56800;52.142;5.364;2024-02-23T02:30:53;6.10;87.80
69595;DHT22;56800;52.142;5.364;2024-02-23T02:33:21;6.10;87.90
69595;DHT22;56800;52.142;5.364;2024-02-23T02:35:48;6.10;87.70
69595;DHT22;56800;52.142;5.364;2024-02-23T02:38:16;6.10;87.60
69595;DHT22;56800;52.142;5.364;2024-02-23T02:40:43;6.10;87.70
69595;DHT22;56800;52.142;5.364;2024-02-23T02:43:10;6.10;87.60
69595;DHT22;56800;52.142;5.364;2024-02-23T02:45:37;6.10;87.60
69595;DHT22;56800;52.142;5.364;2024-02-23T02:48:04;6.10;87.50
69595;DHT22;56800;52.142;5.364;2024-02-23T02:50:31;6.00;87.40
69595;DHT22;56800;52.142;5.364;2024-02-23T02:52:58;6.00;87.30
69595;DHT22;56800;52.142;5.364;2024-02-23T02:55:25;6.00;87.40
69595;DHT22;56800;52.142;5.364;2024-02-23T02:57:51;6.00;87.50
69595;DHT22;56800;52.142;5.364;2024-02-23T03:00:18;6.00;87.40
69595;DHT22;56800;52.142;5.364;2024-02-23T03:02:45;6.00;87.30
69595;DHT22;56800;52.142;5.364;2024-02-23T03:05:12;6.00;87.20
69595;DHT22;56800;52.142;5.364;2024-02-23T03:07:38;5.90;87.00
69595;DHT22;56800;52.142;5.364;2024-02-23T03:10:06;5.90;87.00
69595;DHT22;56800;52.142;5.364;2024-02-23T03:12:32;6.00;87.10
69595;DHT22;56800;52.142;5.364;2024-02-23T03:14:59;5.90;87.00
69595;DHT22;56800;52.142;5.364;2024-02-23T03:17:26;6.00;87.00
69595;DHT22;56800;52.142;5.364;2024-02-23T03:19:53;6.00;87.00
69595;DHT22;56800;52.142;5.364;2024-02-23T03:22:20;6.00;87.00
69595;DHT22;56800;52.142;5.364;2024-02-23T03:24:47;6.00;87.00
69595;DHT22;56800;52.142;5.364;2024-02-23T03:27:13;5.90;86.70
69595;DHT22;56800;52.142;5.364;2024-02-23T03:29:40;5.90;86.70
69595;DHT22;56800;52.142;5.364;2024-02-23T03:32:07;5.90;86.70
69595;DHT22;56800;52.142;5.364;2024-02-23T03:34:35;5.90;86.70
69595;DHT22;56800;52.142;5.364;2024-02-23T03:37:02;5.90;86.70
69595;DHT22;56800;52.142;5.364;2024-02-23T03:39:29;5.90;86.60
69595;DHT22;56800;52.142;5.364;2024-02-23T03:41:56;5.90;86.60
69595;DHT22;56800;52.142;5.364;2024-02-23T03:44:23;5.90;86.60
69595;DHT22;56800;52.142;5.364;2024-02-23T03:46:50;5.80;86.50
69595;DHT22;56800;52.142;5.364;2024-02-23T03:49:17;5.80;86.40
69595;DHT22;56800;52.142;5.364;2024-02-23T03:51:44;5.80;86.50
69595;DHT22;56800;52.142;5.364;2024-02-23T03:54:11;5.70;86.40
69595;DHT22;56800;52.142;5.364;2024-02-23T03:56:41;5.70;86.50
69595;DHT22;56800;52.142;5.364;2024-02-23T03:59:10;5.70;86.40
69595;DHT22;56800;52.142;5.364;2024-02-23T04:01:38;5.70;86.30
69595;DHT22;56800;52.142;5.364;2024-02-23T04:04:05;5.70;86.40
69595;DHT22;56800;52.142;5.364;2024-02-23T04:06:33;5.70;86.20
69595;DHT22;56800;52.142;5.364;2024-02-23T04:09:00;5.60;86.20
69595;DHT22;56800;52.142;5.364;2024-02-23T04:11:27;5.60;86.30
69595;DHT22;56800;52.142;5.364;2024-02-23T04:13:54;5.60;86.30
69595;DHT22;56800;52.142;5.364;2024-02-23T04:16:24;5.60;86.40
69595;DHT22;56800;52.142;5.364;2024-02-23T04:18:52;5.60;86.30
69595;DHT22;56800;52.142;5.364;2024-02-23T04:21:19;5.60;86.40
69595;DHT22;56800;52.142;5.364;2024-02-23T04:23:46;5.50;86.40
69595;DHT22;56800;52.142;5.364;2024-02-23T04:26:13;5.50;86.50
69595;DHT22;56800;52.142;5.364;2024-02-23T04:28:40;5.60;86.50
69595;DHT22;56800;52.142;5.364;2024-02-23T04:31:10;5.60;86.50
69595;DHT22;56800;52.142;5.364;2024-02-23T04:33:37;5.60;86.50
69595;DHT22;56800;52.142;5.364;2024-02-23T04:36:05;5.60;86.50
69595;DHT22;56800;52.142;5.364;2024-02-23T04:38:32;5.60;86.50
69595;DHT22;56800;52.142;5.364;2024-02-23T04:41:02;5.60;86.60
69595;DHT22;56800;52.142;5.364;2024-02-23T04:43:29;5.60;86.50
69595;DHT22;56800;52.142;5.364;2024-02-23T04:45:56;5.50;86.40
69595;DHT22;56800;52.142;5.364;2024-02-23T04:48:23;5.50;86.30
69595;DHT22;56800;52.142;5.364;2024-02-23T04:50:49;5.50;86.50
69595;DHT22;56800;52.142;5.364;2024-02-23T04:53:16;5.50;86.60
69595;DHT22;56800;52.142;5.364;2024-02-23T04:55:43;5.50;86.60
69595;DHT22;56800;52.142;5.364;2024-02-23T04:58:09;5.50;86.60
69595;DHT22;56800;52.142;5.364;2024-02-23T05:00:38;5.50;86.60
69595;DHT22;56800;52.142;5.364;2024-02-23T05:03:05;5.50;86.60
69595;DHT22;56800;52.142;5.364;2024-02-23T05:05:35;5.50;86.70
69595;DHT22;56800;52.142;5.364;2024-02-23T05:08:02;5.50;86.60
69595;DHT22;56800;52.142;5.364;2024-02-23T05:10:29;5.50;86.60
69595;DHT22;56800;52.142;5.364;2024-02-23T05:12:56;5.50;86.60
69595;DHT22;56800;52.142;5.364;2024-02-23T05:15:22;5.50;86.70
69595;DHT22;56800;52.142;5.364;2024-02-23T05:17:49;5.50;86.70
69595;DHT22;56800;52.142;5.364;2024-02-23T05:20:16;5.60;86.70
69595;DHT22;56800;52.142;5.364;2024-02-23T05:22:43;5.60;86.70
69595;DHT22;56800;52.142;5.364;2024-02-23T05:25:09;5.60;86.70
69595;DHT22;56800;52.142;5.364;2024-02-23T05:27:36;5.60;86.60
69595;DHT22;56800;52.142;5.364;2024-02-23T05:30:03;5.70;86.60
69595;DHT22;56800;52.142;5.364;2024-02-23T05:32:30;5.70;86.60
69595;DHT22;56800;52.142;5.364;2024-02-23T05:34:57;5.70;86.60
69595;DHT22;56800;52.142;5.364;2024-02-23T05:37:24;5.70;86.60
69595;DHT22;56800;52.142;5.364;2024-02-23T05:39:51;5.70;86.60
69595;DHT22;56800;52.142;5.364;2024-02-23T05:42:18;5.70;86.60
69595;DHT22;56800;52.142;5.364;2024-02-23T05:44:45;5.70;86.50
69595;DHT22;56800;52.142;5.364;2024-02-23T05:47:12;5.70;86.50
69595;DHT22;56800;52.142;5.364;2024-02-23T05:49:40;5.80;86.50
69595;DHT22;56800;52.142;5.364;2024-02-23T05:52:07;5.80;86.50
69595;DHT22;56800;52.142;5.364;2024-02-23T05:54:34;5.80;86.50
69595;DHT22;56800;52.142;5.364;2024-02-23T05:57:01;5.80;86.50
69595;DHT22;56800;52.142;5.364;2024-02-23T05:59:27;5.80;86.50
69595;DHT22;56800;52.142;5.364;2024-02-23T06:01:54;5.80;86.40
69595;DHT22;56800;52.142;5.364;2024-02-23T06:04:24;5.80;86.30
69595;DHT22;56800;52.142;5.364;2024-02-23T06:06:50;5.80;86.30
69595;DHT22;56800;52.142;5.364;2024-02-23T06:09:18;5.80;86.20
69595;DHT22;56800;52.142;5.364;2024-02-23T06:11:45;5.80;86.30
69595;DHT22;56800;52.142;5.364;2024-02-23T06:14:12;5.80;86.20
69595;DHT22;56800;52.142;5.364;2024-02-23T06:16:39;5.80;86.00
69595;DHT22;56800;52.142;5.364;2024-02-23T06:19:07;5.80;86.00
69595;DHT22;56800;52.142;5.364;2024-02-23T06:21:34;5.80;85.90
69595;DHT22;56800;52.142;5.364;2024-02-23T06:24:00;5.90;86.00
69595;DHT22;56800;52.142;5.364;2024-02-23T06:26:27;5.80;85.90
69595;DHT22;56800;52.142;5.364;2024-02-23T06:28:54;5.80;85.80
69595;DHT22;56800;52.142;5.364;2024-02-23T06:31:21;5.90;85.70
69595;DHT22;56800;52.142;5.364;2024-02-23T06:33:48;5.90;85.90
69595;DHT22;56800;52.142;5.364;2024-02-23T06:36:16;5.90;85.80
69595;DHT22;56800;52.142;5.364;2024-02-23T06:38:44;5.90;85.80
69595;DHT22;56800;52.142;5.364;2024-02-23T06:41:14;5.90;85.70
69595;DHT22;56800;52.142;5.364;2024-02-23T06:43:41;6.00;85.60
69595;DHT22;56800;52.142;5.364;2024-02-23T06:46:08;6.00;85.40
69595;DHT22;56800;52.142;5.364;2024-02-23T06:48:36;6.00;85.40
69595;DHT22;56800;52.142;5.364;2024-02-23T06:51:04;6.00;85.00
69595;DHT22;56800;52.142;5.364;2024-02-23T06:53:31;6.00;85.00
69595;DHT22;56800;52.142;5.364;2024-02-23T06:55:58;6.10;84.90
69595;DHT22;56800;52.142;5.364;2024-02-23T06:58:26;6.10;84.90
69595;DHT22;56800;52.142;5.364;2024-02-23T07:00:52;6.10;84.90
69595;DHT22;56800;52.142;5.364;2024-02-23T07:03:19;6.10;84.70
69595;DHT22;56800;52.142;5.364;2024-02-23T07:05:46;6.10;84.70
69595;DHT22;56800;52.142;5.364;2024-02-23T07:08:14;6.20;84.60
69595;DHT22;56800;52.142;5.364;2024-02-23T07:10:41;6.20;84.50
69595;DHT22;56800;52.142;5.364;2024-02-23T07:13:08;6.20;84.10
69595;DHT22;56800;52.142;5.364;2024-02-23T07:15:35;6.20;84.20
69595;DHT22;56800;52.142;5.364;2024-02-23T07:18:03;6.20;84.10
69595;DHT22;56800;52.142;5.364;2024-02-23T07:20:30;6.20;83.80
69595;DHT22;56800;52.142;5.364;2024-02-23T07:22:57;6.20;84.00
69595;DHT22;56800;52.142;5.364;2024-02-23T07:25:24;6.30;84.00
69595;DHT22;56800;52.142;5.364;2024-02-23T07:27:50;6.30;84.00
69595;DHT22;56800;52.142;5.364;2024-02-23T07:30:17;6.30;84.00
69595;DHT22;56800;52.142;5.364;2024-02-23T07:32:44;6.30;83.80
69595;DHT22;56800;52.142;5.364;2024-02-23T07:35:18;6.30;83.70
69595;DHT22;56800;52.142;5.364;2024-02-23T07:37:45;6.40;83.80
69595;DHT22;56800;52.142;5.364;2024-02-23T07:40:12;6.40;83.50
69595;DHT22;56800;52.142;5.364;2024-02-23T07:42:39;6.50;83.50
69595;DHT22;56800;52.142;5.364;2024-02-23T07:45:07;6.50;83.30
69595;DHT22;56800;52.142;5.364;2024-02-23T07:47:33;6.50;83.00
69595;DHT22;56800;52.142;5.364;2024-02-23T07:50:01;6.50;82.80
69595;DHT22;56800;52.142;5.364;2024-02-23T07:52:27;6.60;82.80
69595;DHT22;56800;52.142;5.364;2024-02-23T07:54:54;6.60;82.70
69595;DHT22;56800;52.142;5.364;2024-02-23T07:57:21;6.60;82.70
69595;DHT22;56800;52.142;5.364;2024-02-23T07:59:48;6.70;82.50
69595;DHT22;56800;52.142;5.364;2024-02-23T08:02:15;6.70;82.30
69595;DHT22;56800;52.142;5.364;2024-02-23T08:04:42;6.70;82.20
69595;DHT22;56800;52.142;5.364;2024-02-23T08:07:10;6.70;82.30
69595;DHT22;56800;52.142;5.364;2024-02-23T08:09:36;6.70;82.20
69595;DHT22;56800;52.142;5.364;2024-02-23T08:12:04;6.70;81.90
69595;DHT22;56800;52.142;5.364;2024-02-23T08:14:31;6.70;81.70
69595;DHT22;56800;52.142;5.364;2024-02-23T08:16:58;6.70;81.70
69595;DHT22;56800;52.142;5.364;2024-02-23T08:19:24;6.70;82.00
69595;DHT22;56800;52.142;5.364;2024-02-23T08:21:51;6.80;81.60
69595;DHT22;56800;52.142;5.364;2024-02-23T08:24:25;6.80;81.80
69595;DHT22;56800;52.142;5.364;2024-02-23T08:26:53;6.90;81.70
69595;DHT22;56800;52.142;5.364;2024-02-23T08:29:20;6.90;81.40
69595;DHT22;56800;52.142;5.364;2024-02-23T08:31:48;6.90;81.10
69595;DHT22;56800;52.142;5.364;2024-02-23T08:34:15;6.80;81.30
69595;DHT22;56800;52.142;5.364;2024-02-23T08:36:44;6.90;81.30
69595;DHT22;56800;52.142;5.364;2024-02-23T08:39:11;6.90;80.90
69595;DHT22;56800;52.142;5.364;2024-02-23T08:41:37;6.80;80.60
69595;DHT22;56800;52.142;5.364;2024-02-23T08:44:05;6.90;80.80
69595;DHT22;56800;52.142;5.364;2024-02-23T08:46:32;6.90;80.70
69595;DHT22;56800;52.142;5.364;2024-02-23T08:48:58;6.80;80.80
69595;DHT22;56800;52.142;5.364;2024-02-23T08:51:25;6.90;80.80
69595;DHT22;56800;52.142;5.364;2024-02-23T08:53:52;6.90;80.80
69595;DHT22;56800;52.142;5.364;2024-02-23T08:56:19;6.90;80.90
69595;DHT22;56800;52.142;5.364;2024-02-23T08:58:46;6.90;80.90
69595;DHT22;56800;52.142;5.364;2024-02-23T09:01:12;6.80;80.90
69595;DHT22;56800;52.142;5.364;2024-02-23T09:03:39;6.80;81.20
69595;DHT22;56800;52.142;5.364;2024-02-23T09:06:06;6.80;82.20
69595;DHT22;56800;52.142;5.364;2024-02-23T09:08:33;6.80;81.50
69595;DHT22;56800;52.142;5.364;2024-02-23T09:11:01;6.80;81.60
69595;DHT22;56800;52.142;5.364;2024-02-23T09:13:28;6.80;81.70
69595;DHT22;56800;52.142;5.364;2024-02-23T09:15:56;6.80;81.80
69595;DHT22;56800;52.142;5.364;2024-02-23T09:18:23;6.80;81.90
69595;DHT22;56800;52.142;5.364;2024-02-23T09:20:50;6.70;82.60
69595;DHT22;56800;52.142;5.364;2024-02-23T09:23:17;6.80;82.00
69595;DHT22;56800;52.142;5.364;2024-02-23T09:25:44;6.80;82.10
69595;DHT22;56800;52.142;5.364;2024-02-23T09:28:11;6.70;82.10
69595;DHT22;56800;52.142;5.364;2024-02-23T09:30:38;6.80;82.00
69595;DHT22;56800;52.142;5.364;2024-02-23T09:33:05;6.80;82.10
69595;DHT22;56800;52.142;5.364;2024-02-23T09:35:32;6.80;82.20
69595;DHT22;56800;52.142;5.364;2024-02-23T09:37:59;6.80;82.20
69595;DHT22;56800;52.142;5.364;2024-02-23T09:40:26;6.80;82.20
69595;DHT22;56800;52.142;5.364;2024-02-23T09:42:57;6.80;82.10
69595;DHT22;56800;52.142;5.364;2024-02-23T09:45:25;6.80;82.30
69595;DHT22;56800;52.142;5.364;2024-02-23T09:47:57;6.80;82.40
69595;DHT22;56800;52.142;5.364;2024-02-23T09:50:24;6.80;82.50
69595;DHT22;56800;52.142;5.364;2024-02-23T09:52:52;6.80;82.40
69595;DHT22;56800;52.142;5.364;2024-02-23T09:55:21;6.80;82.40
69595;DHT22;56800;52.142;5.364;2024-02-23T09:57:48;6.90;82.40
69595;DHT22;56800;52.142;5.364;2024-02-23T10:00:18;6.80;82.50
69595;DHT22;56800;52.142;5.364;2024-02-23T10:02:45;6.90;82.60
69595;DHT22;56800;52.142;5.364;2024-02-23T10:05:12;6.90;82.60
69595;DHT22;56800;52.142;5.364;2024-02-23T10:07:40;7.10;83.20
69595;DHT22;56800;52.142;5.364;2024-02-23T10:10:08;7.30;83.60
69595;DHT22;56800;52.142;5.364;2024-02-23T10:12:35;7.50;83.10
69595;DHT22;56800;52.142;5.364;2024-02-23T10:15:03;7.50;81.40
69595;DHT22;56800;52.142;5.364;2024-02-23T10:17:33;7.60;81.50
69595;DHT22;56800;52.142;5.364;2024-02-23T10:20:02;7.50;81.30
69595;DHT22;56800;52.142;5.364;2024-02-23T10:22:31;7.50;81.30
69595;DHT22;56800;52.142;5.364;2024-02-23T10:24:59;7.50;81.40
69595;DHT22;56800;52.142;5.364;2024-02-23T10:27:26;7.40;81.20
69595;DHT22;56800;52.142;5.364;2024-02-23T10:29:54;7.40;81.60
69595;DHT22;56800;52.142;5.364;2024-02-23T10:32:21;7.40;81.20
69595;DHT22;56800;52.142;5.364;2024-02-23T10:34:49;7.40;81.40
69595;DHT22;56800;52.142;5.364;2024-02-23T10:37:17;7.40;82.10
69595;DHT22;56800;52.142;5.364;2024-02-23T10:39:45;7.40;81.60
69595;DHT22;56800;52.142;5.364;2024-02-23T10:42:13;7.40;81.70
69595;DHT22;56800;52.142;5.364;2024-02-23T10:44:40;7.40;81.60
69595;DHT22;56800;52.142;5.364;2024-02-23T10:47:07;7.30;81.80
69595;DHT22;56800;52.142;5.364;2024-02-23T10:49:36;7.30;82.00
69595;DHT22;56800;52.142;5.364;2024-02-23T10:52:05;7.30;81.90
69595;DHT22;56800;52.142;5.364;2024-02-23T10:54:33;7.30;82.10
69595;DHT22;56800;52.142;5.364;2024-02-23T10:57:02;7.30;82.10
69595;DHT22;56800;52.142;5.364;2024-02-23T10:59:28;7.40;82.40
69595;DHT22;56800;52.142;5.364;2024-02-23T11:01:56;7.40;82.30
69595;DHT22;56800;52.142;5.364;2024-02-23T11:04:27;7.50;82.40
69595;DHT22;56800;52.142;5.364;2024-02-23T11:06:55;7.60;82.40
69595;DHT22;56800;52.142;5.364;2024-02-23T11:09:25;7.70;82.20
69595;DHT22;56800;52.142;5.364;2024-02-23T11:11:56;7.70;81.70
69595;DHT22;56800;52.142;5.364;2024-02-23T11:14:37;7.80;81.70
69595;DHT22;56800;52.142;5.364;2024-02-23T11:17:05;7.80;81.40
69595;DHT22;56800;52.142;5.364;2024-02-23T11:19:33;7.80;81.40
69595;DHT22;56800;52.142;5.364;2024-02-23T11:22:01;7.90;81.30
69595;DHT22;56800;52.142;5.364;2024-02-23T11:24:29;7.90;81.20
69595;DHT22;56800;52.142;5.364;2024-02-23T11:27:01;8.00;81.40
69595;DHT22;56800;52.142;5.364;2024-02-23T11:29:35;8.00;81.40
69595;DHT22;56800;52.142;5.364;2024-02-23T11:32:15;8.00;81.20
69595;DHT22;56800;52.142;5.364;2024-02-23T11:34:53;8.20;81.40
69595;DHT22;56800;52.142;5.364;2024-02-23T11:37:20;8.30;80.50
69595;DHT22;56800;52.142;5.364;2024-02-23T11:39:47;8.40;80.60
69595;DHT22;56800;52.142;5.364;2024-02-23T11:42:14;8.40;80.00
69595;DHT22;56800;52.142;5.364;2024-02-23T11:44:41;8.50;80.30
69595;DHT22;56800;52.142;5.364;2024-02-23T11:47:08;8.50;79.50
69595;DHT22;56800;52.142;5.364;2024-02-23T11:49:34;8.50;79.50
69595;DHT22;56800;52.142;5.364;2024-02-23T11:52:01;8.60;79.50
69595;DHT22;56800;52.142;5.364;2024-02-23T11:54:30;8.60;79.50
69595;DHT22;56800;52.142;5.364;2024-02-23T11:56:57;8.60;79.30
69595;DHT22;56800;52.142;5.364;2024-02-23T11:59:25;8.60;78.90
69595;DHT22;56800;52.142;5.364;2024-02-23T12:01:51;8.70;79.30
69595;DHT22;56800;52.142;5.364;2024-02-23T12:04:18;8.70;79.50
69595;DHT22;56800;52.142;5.364;2024-02-23T12:06:45;8.70;79.10
69595;DHT22;56800;52.142;5.364;2024-02-23T12:09:12;8.70;78.80
69595;DHT22;56800;52.142;5.364;2024-02-23T12:11:39;8.70;78.90
69595;DHT22;56800;52.142;5.364;2024-02-23T12:14:07;8.70;78.70
69595;DHT22;56800;52.142;5.364;2024-02-23T12:16:37;8.70;79.30
69595;DHT22;56800;52.142;5.364;2024-02-23T12:19:03;8.70;78.90
69595;DHT22;56800;52.142;5.364;2024-02-23T12:21:30;8.80;79.10
69595;DHT22;56800;52.142;5.364;2024-02-23T12:24:00;8.80;78.60
69595;DHT22;56800;52.142;5.364;2024-02-23T12:26:30;8.90;78.70
69595;DHT22;56800;52.142;5.364;2024-02-23T12:29:01;8.90;78.50
69595;DHT22;56800;52.142;5.364;2024-02-23T12:31:31;9.00;78.40
69595;DHT22;56800;52.142;5.364;2024-02-23T12:33:59;9.00;78.00
69595;DHT22;56800;52.142;5.364;2024-02-23T12:36:26;9.00;77.40
69595;DHT22;56800;52.142;5.364;2024-02-23T12:38:52;9.00;77.90
69595;DHT22;56800;52.142;5.364;2024-02-23T12:41:19;9.00;77.00
69595;DHT22;56800;52.142;5.364;2024-02-23T12:43:46;9.00;76.60
69595;DHT22;56800;52.142;5.364;2024-02-23T12:46:14;9.10;77.10
69595;DHT22;56800;52.142;5.364;2024-02-23T12:48:41;9.10;77.10
69595;DHT22;56800;52.142;5.364;2024-02-23T12:51:09;9.10;76.90
69595;DHT22;56800;52.142;5.364;2024-02-23T12:53:37;9.10;76.70
69595;DHT22;56800;52.142;5.364;2024-02-23T12:56:14;9.00;76.80
69595;DHT22;56800;52.142;5.364;2024-02-23T12:58:44;9.10;76.80
69595;DHT22;56800;52.142;5.364;2024-02-23T13:01:11;9.10;76.70
69595;DHT22;56800;52.142;5.364;2024-02-23T13:03:39;9.10;76.70
69595;DHT22;56800;52.142;5.364;2024-02-23T13:06:09;9.10;76.70
69595;DHT22;56800;52.142;5.364;2024-02-23T13:08:36;9.20;76.50
69595;DHT22;56800;52.142;5.364;2024-02-23T13:11:03;9.20;76.60
69595;DHT22;56800;52.142;5.364;2024-02-23T13:13:30;9.20;76.10
69595;DHT22;56800;52.142;5.364;2024-02-23T13:15:58;9.20;75.70
69595;DHT22;56800;52.142;5.364;2024-02-23T13:18:25;9.20;76.20
69595;DHT22;56800;52.142;5.364;2024-02-23T13:20:52;9.20;76.40
69595;DHT22;56800;52.142;5.364;2024-02-23T13:23:19;9.20;75.90
69595;DHT22;56800;52.142;5.364;2024-02-23T13:25:46;9.20;76.50
69595;DHT22;56800;52.142;5.364;2024-02-23T13:28:12;9.20;75.50
69595;DHT22;56800;52.142;5.364;2024-02-23T13:30:39;9.20;75.60
69595;DHT22;56800;52.142;5.364;2024-02-23T13:33:06;9.30;75.30
69595;DHT22;56800;52.142;5.364;2024-02-23T13:35:35;9.30;74.90
69595;DHT22;56800;52.142;5.364;2024-02-23T13:38:02;9.30;75.10
69595;DHT22;56800;52.142;5.364;2024-02-23T13:40:31;9.30;75.20
69595;DHT22;56800;52.142;5.364;2024-02-23T13:42:58;9.30;74.70
69595;DHT22;56800;52.142;5.364;2024-02-23T13:45:26;9.40;75.00
69595;DHT22;56800;52.142;5.364;2024-02-23T13:48:00;9.50;75.20
69595;DHT22;56800;52.142;5.364;2024-02-23T13:50:28;9.60;75.30
69595;DHT22;56800;52.142;5.364;2024-02-23T13:52:56;9.60;74.50
69595;DHT22;56800;52.142;5.364;2024-02-23T13:55:23;9.70;74.60
69595;DHT22;56800;52.142;5.364;2024-02-23T13:57:50;9.70;74.10
69595;DHT22;56800;52.142;5.364;2024-02-23T14:00:18;9.70;74.50
69595;DHT22;56800;52.142;5.364;2024-02-23T14:02:46;9.80;74.10
69595;DHT22;56800;52.142;5.364;2024-02-23T14:05:13;9.80;74.50
69595;DHT22;56800;52.142;5.364;2024-02-23T14:07:42;9.70;73.90
69595;DHT22;56800;52.142;5.364;2024-02-23T14:10:09;9.80;74.40
69595;DHT22;56800;52.142;5.364;2024-02-23T14:12:35;9.80;74.40
69595;DHT22;56800;52.142;5.364;2024-02-23T14:15:02;9.90;74.60
69595;DHT22;56800;52.142;5.364;2024-02-23T14:17:29;10.00;74.20
69595;DHT22;56800;52.142;5.364;2024-02-23T14:19:56;10.00;73.60
69595;DHT22;56800;52.142;5.364;2024-02-23T14:22:23;10.00;73.90
69595;DHT22;56800;52.142;5.364;2024-02-23T14:31:53;10.00;72.90
69595;DHT22;56800;52.142;5.364;2024-02-23T14:34:48;9.90;73.00
69595;DHT22;56800;52.142;5.364;2024-02-23T14:37:15;10.00;73.20
69595;DHT22;56800;52.142;5.364;2024-02-23T14:39:42;9.90;73.00
69595;DHT22;56800;52.142;5.364;2024-02-23T14:42:13;9.90;73.10
69595;DHT22;56800;52.142;5.364;2024-02-23T14:44:40;10.00;72.60
69595;DHT22;56800;52.142;5.364;2024-02-23T14:47:09;10.00;72.60
69595;DHT22;56800;52.142;5.364;2024-02-23T14:49:36;10.10;72.70
69595;DHT22;56800;52.142;5.364;2024-02-23T14:52:03;10.10;72.30
69595;DHT22;56800;52.142;5.364;2024-02-23T14:54:31;10.00;71.70
69595;DHT22;56800;52.142;5.364;2024-02-23T14:56:59;10.00;72.20
69595;DHT22;56800;52.142;5.364;2024-02-23T14:59:27;10.00;72.80
69595;DHT22;56800;52.142;5.364;2024-02-23T15:01:54;10.00;72.50
69595;DHT22;56800;52.142;5.364;2024-02-23T15:04:21;10.00;72.20
69595;DHT22;56800;52.142;5.364;2024-02-23T15:06:48;9.90;72.00
69595;DHT22;56800;52.142;5.364;2024-02-23T15:09:15;9.90;72.40
69595;DHT22;56800;52.142;5.364;2024-02-23T15:11:42;9.90;72.00
69595;DHT22;56800;52.142;5.364;2024-02-23T15:14:09;9.80;72.20
69595;DHT22;56800;52.142;5.364;2024-02-23T15:16:39;9.80;72.40
69595;DHT22;56800;52.142;5.364;2024-02-23T15:19:05;9.90;72.50
69595;DHT22;56800;52.142;5.364;2024-02-23T15:21:35;9.80;72.10
69595;DHT22;56800;52.142;5.364;2024-02-23T15:24:07;9.80;72.40
69595;DHT22;56800;52.142;5.364;2024-02-23T15:26:34;9.80;72.50
69595;DHT22;56800;52.142;5.364;2024-02-23T15:29:01;9.80;72.00
69595;DHT22;56800;52.142;5.364;2024-02-23T15:31:30;9.70;72.20
69595;DHT22;56800;52.142;5.364;2024-02-23T15:33:57;9.70;72.50
69595;DHT22;56800;52.142;5.364;2024-02-23T15:36:25;9.70;72.70
69595;DHT22;56800;52.142;5.364;2024-02-23T15:38:52;9.80;72.90
69595;DHT22;56800;52.142;5.364;2024-02-23T15:41:19;9.70;73.00
69595;DHT22;56800;52.142;5.364;2024-02-23T15:43:46;9.70;73.10
69595;DHT22;56800;52.142;5.364;2024-02-23T15:46:14;9.70;72.90
69595;DHT22;56800;52.142;5.364;2024-02-23T15:48:41;9.70;73.20
69595;DHT22;56800;52.142;5.364;2024-02-23T15:51:08;9.60;72.80
69595;DHT22;56800;52.142;5.364;2024-02-23T15:53:53;9.60;73.10